Time,TemperatureF,DewpointF,PressureIn,WindDirection,WindDirectionDegrees,WindSpeedMPH,WindSpeedGustMPH,Humidity,HourlyPrecipIn,Conditions,Clouds,dailyrainin,SolarRadiationWatts/m^2,SoftwareType,DateUTC
2013-11-07 00:12:00,22.0,15.0,-100.00,NW,320,4.0,11.0,74,0.00,,,0.05,0.000000,,2013-11-07 07:12:00,
2013-11-07 00:22:00,22.0,15.0,-100.00,NW,320,4.0,11.0,74,0.00,,,0.05,0.000000,,2013-11-07 07:22:00,
2013-11-07 00:32:00,22.0,15.0,-100.00,NW,320,4.0,11.0,74,0.00,,,0.05,0.000000,,2013-11-07 07:32:00,
2013-11-07 01:11:00,23.0,15.0,-100.00,NW,318,4.0,10.0,72,0.00,,,0.05,0.000000,,2013-11-07 08:11:00,
2013-11-07 01:22:00,23.0,15.0,-100.00,NW,318,4.0,10.0,72,0.00,,,0.05,0.000000,,2013-11-07 08:22:00,
2013-11-07 01:32:00,23.0,15.0,-100.00,NW,318,4.0,10.0,72,0.00,,,0.05,0.000000,,2013-11-07 08:32:00,
2013-11-07 02:11:00,21.0,16.0,-100.00,West,265,2.0,10.0,80,0.00,,,0.05,0.000000,,2013-11-07 09:11:00,
2013-11-07 02:22:00,21.0,16.0,-100.00,West,265,2.0,10.0,80,0.00,,,0.05,0.000000,,2013-11-07 09:22:00,
2013-11-07 02:33:00,21.0,16.0,-100.00,West,265,2.0,10.0,80,0.00,,,0.05,0.000000,,2013-11-07 09:33:00,
2013-11-07 03:13:00,20.0,17.0,-100.00,WNW,301,2.0,6.0,87,0.00,,,0.05,0.000000,,2013-11-07 10:13:00,
2013-11-07 03:23:00,20.0,17.0,-100.00,WNW,301,2.0,6.0,87,0.00,,,0.05,0.000000,,2013-11-07 10:23:00,
2013-11-07 03:33:00,20.0,17.0,-100.00,WNW,301,2.0,6.0,87,0.00,,,0.05,0.000000,,2013-11-07 10:33:00,
2013-11-07 04:12:00,17.0,15.0,-100.00,East,88,0.0,6.0,93,0.00,,,0.05,0.000000,,2013-11-07 11:12:00,
2013-11-07 04:22:00,17.0,15.0,-100.00,East,88,0.0,6.0,93,0.00,,,0.05,0.000000,,2013-11-07 11:22:00,
2013-11-07 05:12:00,15.0,13.0,-100.00,NNE,21,0.0,3.0,91,0.00,,,0.05,0.000000,,2013-11-07 12:12:00,
2013-11-07 05:22:00,15.0,13.0,-100.00,NNE,21,0.0,3.0,91,0.00,,,0.05,0.000000,,2013-11-07 12:22:00,
2013-11-07 05:32:00,15.0,13.0,-100.00,NNE,21,0.0,3.0,91,0.00,,,0.05,0.000000,,2013-11-07 12:32:00,
2013-11-07 06:12:00,15.0,13.0,-100.00,NNE,12,0.0,2.0,91,0.00,,,0.05,0.000000,,2013-11-07 13:12:00,
2013-11-07 06:21:00,15.0,13.0,-100.00,NNE,12,0.0,2.0,91,0.00,,,0.05,0.000000,,2013-11-07 13:21:00,
2013-11-07 06:32:00,15.0,13.0,-100.00,NNE,12,0.0,2.0,91,0.00,,,0.05,0.000000,,2013-11-07 13:32:00,
2013-11-07 07:12:00,17.0,15.0,-100.00,East,88,0.0,0.0,92,0.00,,,0.05,1.000000,,2013-11-07 14:12:00,
2013-11-07 07:22:00,17.0,15.0,-100.00,East,88,0.0,0.0,92,0.00,,,0.05,1.000000,,2013-11-07 14:22:00,
2013-11-07 07:32:00,17.0,15.0,-100.00,East,88,0.0,0.0,92,0.00,,,0.05,1.000000,,2013-11-07 14:32:00,
2013-11-07 08:11:00,20.0,18.0,-100.00,NNE,17,2.0,3.0,90,0.00,,,0.05,21.000000,,2013-11-07 15:11:00,
2013-11-07 08:22:00,20.0,18.0,-100.00,NNE,17,2.0,3.0,90,0.00,,,0.05,21.000000,,2013-11-07 15:22:00,
2013-11-07 08:33:00,20.0,18.0,-100.00,NNE,17,2.0,3.0,90,0.00,,,0.05,21.000000,,2013-11-07 15:33:00,
2013-11-07 09:13:00,31.0,21.0,-100.00,South,185,1.0,3.0,65,0.01,,,0.06,189.000000,,2013-11-07 16:13:00,
2013-11-07 09:23:00,31.0,21.0,-100.00,South,185,1.0,3.0,65,0.01,,,0.06,189.000000,,2013-11-07 16:23:00,
2013-11-07 09:33:00,31.0,21.0,-100.00,South,185,1.0,3.0,65,0.01,,,0.06,189.000000,,2013-11-07 16:33:00,
2013-11-07 10:12:00,31.0,20.0,-100.00,SW,215,3.0,6.0,64,0.00,,,0.05,306.000000,,2013-11-07 17:12:00,
2013-11-07 10:22:00,31.0,20.0,-100.00,SW,215,3.0,6.0,64,0.00,,,0.05,306.000000,,2013-11-07 17:22:00,
2013-11-07 10:33:00,31.0,20.0,-100.00,SW,215,3.0,6.0,64,0.00,,,0.05,306.000000,,2013-11-07 17:33:00,
2013-11-07 11:12:00,34.0,23.0,-100.00,South,189,3.0,5.0,63,0.02,,,0.06,287.000000,,2013-11-07 18:12:00,
2013-11-07 11:23:00,34.0,23.0,-100.00,South,189,3.0,5.0,63,0.02,,,0.06,287.000000,,2013-11-07 18:23:00,
2013-11-07 11:32:00,34.0,23.0,-100.00,South,189,3.0,5.0,63,0.02,,,0.06,287.000000,,2013-11-07 18:32:00,
2013-11-07 12:11:00,39.0,23.0,-100.00,South,179,4.0,5.0,52,0.02,,,0.07,402.000000,,2013-11-07 19:11:00,
2013-11-07 12:21:00,39.0,23.0,-100.00,South,179,4.0,5.0,52,0.02,,,0.07,402.000000,,2013-11-07 19:21:00,
2013-11-07 12:32:00,39.0,23.0,-100.00,South,179,4.0,5.0,52,0.02,,,0.07,402.000000,,2013-11-07 19:32:00,
2013-11-07 13:11:00,40.0,22.0,-100.00,South,170,4.0,8.0,49,0.03,,,0.09,540.000000,,2013-11-07 20:11:00,
2013-11-07 13:22:00,40.0,22.0,-100.00,South,170,4.0,8.0,49,0.03,,,0.09,540.000000,,2013-11-07 20:22:00,
2013-11-07 13:32:00,40.0,22.0,-100.00,South,170,4.0,8.0,49,0.03,,,0.09,540.000000,,2013-11-07 20:32:00,
2013-11-07 14:12:00,42.0,24.0,-100.00,South,185,3.0,6.0,49,0.07,,,0.15,493.000000,,2013-11-07 21:12:00,
2013-11-07 14:22:00,42.0,24.0,-100.00,South,185,3.0,6.0,49,0.07,,,0.15,493.000000,,2013-11-07 21:22:00,
2013-11-07 14:34:00,42.0,24.0,-100.00,South,185,3.0,6.0,49,0.07,,,0.15,493.000000,,2013-11-07 21:34:00,
2013-11-07 15:13:00,40.0,24.0,-100.00,South,179,3.0,8.0,52,0.02,,,0.17,294.000000,,2013-11-07 22:13:00,
2013-11-07 15:23:00,40.0,24.0,-100.00,South,179,3.0,8.0,52,0.02,,,0.17,294.000000,,2013-11-07 22:23:00,
2013-11-07 15:33:00,40.0,24.0,-100.00,South,179,3.0,8.0,52,0.02,,,0.17,294.000000,,2013-11-07 22:33:00,
2013-11-07 16:12:00,39.0,23.0,-100.00,SSW,195,2.0,6.0,52,0.02,,,0.19,233.000000,,2013-11-07 23:12:00,
2013-11-07 16:22:00,39.0,23.0,-100.00,SSW,195,2.0,6.0,52,0.02,,,0.19,233.000000,,2013-11-07 23:22:00,
2013-11-07 16:34:00,39.0,23.0,-100.00,SSW,195,2.0,6.0,52,0.02,,,0.19,233.000000,,2013-11-07 23:34:00,
2013-11-07 17:12:00,31.0,22.0,-100.00,South,176,2.0,5.0,70,0.00,,,0.19,26.000000,,2013-11-08 00:12:00,
2013-11-07 17:22:00,31.0,22.0,-100.00,South,176,2.0,5.0,70,0.00,,,0.19,26.000000,,2013-11-08 00:22:00,
2013-11-07 17:32:00,31.0,22.0,-100.00,South,176,2.0,5.0,70,0.00,,,0.19,26.000000,,2013-11-08 00:32:00,
2013-11-07 18:12:00,29.0,21.0,-100.00,South,178,5.0,7.0,73,0.00,,,0.19,1.000000,,2013-11-08 01:12:00,
2013-11-07 18:22:00,29.0,21.0,-100.00,South,178,5.0,7.0,73,0.00,,,0.19,1.000000,,2013-11-08 01:22:00,
2013-11-07 18:32:00,29.0,21.0,-100.00,South,178,5.0,7.0,73,0.00,,,0.19,1.000000,,2013-11-08 01:32:00,
2013-11-07 19:12:00,32.0,25.0,-100.00,South,177,5.0,10.0,76,0.00,,,0.19,0.000000,,2013-11-08 02:12:00,
2013-11-07 19:21:00,32.0,25.0,-100.00,South,177,5.0,10.0,76,0.00,,,0.19,0.000000,,2013-11-08 02:21:00,
2013-11-07 19:32:00,32.0,25.0,-100.00,South,177,5.0,10.0,76,0.00,,,0.19,0.000000,,2013-11-08 02:32:00,
2013-11-07 20:11:00,34.0,25.0,-100.00,SSE,158,5.0,12.0,68,0.00,,,0.19,0.000000,,2013-11-08 03:11:00,
2013-11-07 20:22:00,34.0,25.0,-100.00,SSE,158,5.0,12.0,68,0.00,,,0.19,0.000000,,2013-11-08 03:22:00,
2013-11-07 20:34:00,34.0,25.0,-100.00,SSE,158,5.0,12.0,68,0.00,,,0.19,0.000000,,2013-11-08 03:34:00,
2013-11-07 21:13:00,34.0,26.0,-100.00,SSE,156,5.0,15.0,71,0.00,,,0.19,0.000000,,2013-11-08 04:13:00,
2013-11-07 21:23:00,34.0,26.0,-100.00,SSE,156,5.0,15.0,71,0.00,,,0.19,0.000000,,2013-11-08 04:23:00,
2013-11-07 21:34:00,34.0,26.0,-100.00,SSE,156,5.0,15.0,71,0.00,,,0.19,0.000000,,2013-11-08 04:34:00,
2013-11-07 22:13:00,35.0,26.0,-100.00,South,185,5.0,12.0,70,0.00,,,0.19,0.000000,,2013-11-08 05:13:00,
2013-11-07 22:23:00,35.0,26.0,-100.00,South,185,5.0,12.0,70,0.00,,,0.19,0.000000,,2013-11-08 05:23:00,
2013-11-07 22:34:00,35.0,26.0,-100.00,South,185,5.0,12.0,70,0.00,,,0.19,0.000000,,2013-11-08 05:34:00,
2013-11-07 23:13:00,35.0,26.0,-100.00,SSW,200,5.0,10.0,70,0.00,,,0.19,0.000000,,2013-11-08 06:13:00,
2013-11-07 23:23:00,35.0,26.0,-100.00,SSW,200,5.0,10.0,70,0.00,,,0.19,0.000000,,2013-11-08 06:23:00,
2013-11-07 23:32:00,35.0,26.0,-100.00,SSW,200,5.0,10.0,70,0.00,,,0.19,0.000000,,2013-11-08 06:32:00,